Time;durP1;ratioP1;P1;durP2;ratioP2;P2;SDS_P1;SDS_P2;PMS_P1;PMS_P2;Temp;Humidity;BMP_temperature;BMP_pressure;BME280_temperature;BME280_humidity;BME280_pressure;Samples;Min_cycle;Max_cycle;Signal;HPM_P1;HPM_P2
2021/12/21 00:00:29;;;;;;;;;;;1.10;99.90;;;;;;5064450;28;19924;-79
2021/12/21 00:02:57;;;;;;;;;;;1.20;99.90;;;;;;5067886;28;19974;-79
2021/12/21 00:05:28;;;;;;;;;;;1.10;99.90;;;;;;5071391;28;19931;-79
2021/12/21 00:07:56;;;;;;;;;;;1.10;99.90;;;;;;5083773;28;20019;-79
2021/12/21 00:10:24;;;;;;;;;;;1.10;99.90;;;;;;5064148;28;20416;-79
2021/12/21 00:13:02;;;;;;;;;;;1.10;99.90;;;;;;5067875;28;19939;-79
2021/12/21 00:15:39;;;;;;;;;;;1.10;99.90;;;;;;5085411;28;19924;-79
2021/12/21 00:18:18;;;;;;;;;;;1.10;99.90;;;;;;5081107;28;19928;-78
2021/12/21 00:20:53;;;;;;;;;;;1.10;99.90;;;;;;5080692;28;19924;-79
2021/12/21 00:23:32;;;;;;;;;;;1.10;99.90;;;;;;5068205;28;19930;-79
2021/12/21 00:25:59;;;;;;;;;;;1.10;99.90;;;;;;5080643;28;19925;-79
2021/12/21 00:28:29;;;;;;;;;;;1.10;99.90;;;;;;5064818;28;19928;-79
2021/12/21 00:30:56;;;;;;;;;;;1.00;99.90;;;;;;5068857;28;20372;-79
2021/12/21 00:33:24;;;;;;;;;;;1.00;99.90;;;;;;5065094;28;19927;-79
2021/12/21 00:35:51;;;;;;;;;;;1.00;99.90;;;;;;5079275;28;20408;-79
2021/12/21 00:38:18;;;;;;;;;;;1.00;99.90;;;;;;5076767;28;19935;-79
2021/12/21 00:40:45;;;;;;;;;;;1.00;99.90;;;;;;5066458;28;19924;-79
2021/12/21 00:43:12;;;;;;;;;;;1.00;99.90;;;;;;5066990;28;19928;-79
2021/12/21 00:45:39;;;;;;;;;;;1.00;99.90;;;;;;5059618;28;19928;-79
2021/12/21 00:48:06;;;;;;;;;;;1.00;99.90;;;;;;5065479;28;19928;-79
2021/12/21 00:50:34;;;;;;;;;;;1.00;99.90;;;;;;5082850;28;19977;-79
2021/12/21 00:53:01;;;;;;;;;;;1.00;99.90;;;;;;5085537;28;19924;-79
2021/12/21 00:55:28;;;;;;;;;;;1.00;99.90;;;;;;5066744;28;20408;-79
2021/12/21 00:57:55;;;;;;;;;;;1.00;99.90;;;;;;5065377;28;19932;-79
2021/12/21 01:00:23;;;;;;;;;;;0.90;99.90;;;;;;5081238;28;19924;-79
2021/12/21 01:02:51;;;;;;;;;;;0.90;99.90;;;;;;5084885;28;19924;-79
2021/12/21 01:05:25;;;;;;;;;;;0.90;99.90;;;;;;5089430;28;20961;-79
2021/12/21 01:07:56;;;;;;;;;;;0.90;99.90;;;;;;5083517;28;19971;-79
2021/12/21 01:13:28;;;;;;;;;;;0.90;99.90;;;;;;5066655;28;19927;-79
2021/12/21 01:16:06;;;;;;;;;;;0.80;99.90;;;;;;5084260;28;19924;-79
2021/12/21 01:18:38;;;;;;;;;;;0.80;99.90;;;;;;5078831;28;19985;-79
2021/12/21 01:21:11;;;;;;;;;;;0.90;99.90;;;;;;5081211;28;19930;-79
2021/12/21 01:26:34;;;;;;;;;;;0.90;99.90;;;;;;5069756;28;19930;-79
2021/12/21 01:29:10;;;;;;;;;;;0.90;99.90;;;;;;5059475;28;19931;-79
2021/12/21 01:31:47;;;;;;;;;;;0.80;99.90;;;;;;5079688;28;20383;-79
2021/12/21 01:34:25;;;;;;;;;;;0.80;99.90;;;;;;5085797;28;19924;-79
2021/12/21 01:36:58;;;;;;;;;;;0.80;99.90;;;;;;5084402;28;20757;-79
2021/12/21 01:39:52;;;;;;;;;;;0.80;99.90;;;;;;5080904;28;19924;-79
2021/12/21 01:42:28;;;;;;;;;;;0.80;99.90;;;;;;5085603;28;20001;-79
2021/12/21 01:50:26;;;;;;;;;;;0.70;99.90;;;;;;5081993;28;20290;-79
2021/12/21 01:52:53;;;;;;;;;;;0.80;99.90;;;;;;5068885;28;20281;-79
2021/12/21 01:55:21;;;;;;;;;;;0.70;99.90;;;;;;5068757;28;19978;-79
2021/12/21 01:57:48;;;;;;;;;;;0.70;99.90;;;;;;5084044;28;19928;-79
2021/12/21 02:00:15;;;;;;;;;;;0.70;99.90;;;;;;5079277;28;19938;-79
2021/12/21 02:02:42;;;;;;;;;;;0.70;99.90;;;;;;5062749;28;20018;-79
2021/12/21 02:05:09;;;;;;;;;;;0.70;99.90;;;;;;5071916;28;20013;-79
2021/12/21 02:07:36;;;;;;;;;;;0.70;99.90;;;;;;5061450;28;19985;-79
2021/12/21 02:10:04;;;;;;;;;;;0.70;99.90;;;;;;5064336;28;19924;-79
2021/12/21 02:12:32;;;;;;;;;;;0.70;99.90;;;;;;5070072;28;19938;-79
2021/12/21 02:15:00;;;;;;;;;;;0.70;99.90;;;;;;5084569;28;19954;-79
2021/12/21 02:20:25;;;;;;;;;;;0.70;99.90;;;;;;5050109;28;19924;-79
2021/12/21 02:22:58;;;;;;;;;;;0.60;99.90;;;;;;5085196;28;19956;-79
2021/12/21 02:31:01;;;;;;;;;;;0.60;99.90;;;;;;5063582;28;19920;-79
2021/12/21 02:33:28;;;;;;;;;;;0.60;99.90;;;;;;5071642;28;20024;-79
2021/12/21 02:35:58;;;;;;;;;;;0.60;99.90;;;;;;5084044;28;19924;-79
2021/12/21 02:38:25;;;;;;;;;;;0.60;99.90;;;;;;5086903;28;19928;-79
2021/12/21 02:40:52;;;;;;;;;;;0.60;99.90;;;;;;5069375;28;19986;-79
2021/12/21 02:43:19;;;;;;;;;;;0.60;99.90;;;;;;5084832;28;19938;-79
2021/12/21 02:45:46;;;;;;;;;;;0.60;99.90;;;;;;5084015;28;20474;-79
2021/12/21 02:48:13;;;;;;;;;;;0.60;99.90;;;;;;5088285;28;19977;-79
2021/12/21 02:50:41;;;;;;;;;;;0.60;99.90;;;;;;5068975;28;19924;-79
2021/12/21 02:53:09;;;;;;;;;;;0.60;99.90;;;;;;5069611;28;20007;-79
2021/12/21 02:55:36;;;;;;;;;;;0.50;99.90;;;;;;5083478;28;19924;-80
2021/12/21 02:58:04;;;;;;;;;;;0.50;99.90;;;;;;5070579;28;19924;-79
2021/12/21 03:00:31;;;;;;;;;;;0.50;99.90;;;;;;5085585;28;20390;-79
2021/12/21 03:03:06;;;;;;;;;;;0.50;99.90;;;;;;5082942;28;19939;-79
2021/12/21 03:05:32;;;;;;;;;;;0.50;99.90;;;;;;5085768;28;20294;-80
2021/12/21 03:08:09;;;;;;;;;;;0.50;99.90;;;;;;5090487;28;19924;-83
2021/12/21 03:10:45;;;;;;;;;;;0.50;99.90;;;;;;5082650;28;19924;-82
2021/12/21 03:15:56;;;;;;;;;;;0.50;99.90;;;;;;5088379;28;19920;-81
2021/12/21 03:18:23;;;;;;;;;;;0.50;99.90;;;;;;5086827;28;20669;-81
2021/12/21 03:20:50;;;;;;;;;;;0.50;99.90;;;;;;5080508;28;20425;-81
2021/12/21 03:23:17;;;;;;;;;;;0.50;99.90;;;;;;5067172;28;19928;-81
2021/12/21 03:25:45;;;;;;;;;;;0.50;99.90;;;;;;5086888;28;20378;-83
2021/12/21 03:28:12;;;;;;;;;;;0.50;99.90;;;;;;5088956;28;19934;-81
2021/12/21 03:30:39;;;;;;;;;;;0.40;99.90;;;;;;5087527;28;19978;-81
2021/12/21 03:33:06;;;;;;;;;;;0.40;99.90;;;;;;5086110;28;19939;-80
2021/12/21 03:35:33;;;;;;;;;;;0.40;99.90;;;;;;5085837;28;19939;-80
2021/12/21 03:38:00;;;;;;;;;;;0.40;99.90;;;;;;5070793;28;19981;-83
2021/12/21 03:40:31;;;;;;;;;;;0.40;99.90;;;;;;5089018;28;19925;-82
2021/12/21 03:43:00;;;;;;;;;;;0.40;99.90;;;;;;5081562;28;19924;-82
2021/12/21 03:45:28;;;;;;;;;;;0.40;99.90;;;;;;5084403;28;19925;-82
2021/12/21 03:47:55;;;;;;;;;;;0.30;99.90;;;;;;5069241;28;19931;-80
2021/12/21 03:50:22;;;;;;;;;;;0.30;99.90;;;;;;5092432;28;19924;-84
2021/12/21 03:52:49;;;;;;;;;;;0.40;99.90;;;;;;5087489;28;19940;-80
2021/12/21 03:55:16;;;;;;;;;;;0.30;99.90;;;;;;5085827;28;19924;-81
2021/12/21 03:57:43;;;;;;;;;;;0.30;99.90;;;;;;5069595;28;19963;-80
2021/12/21 04:00:14;;;;;;;;;;;0.30;99.90;;;;;;5135745;22;19932;-78
2021/12/21 04:02:41;;;;;;;;;;;0.30;99.90;;;;;;5079504;28;20060;-78
2021/12/21 04:05:09;;;;;;;;;;;0.30;99.90;;;;;;5094542;28;20302;-78
2021/12/21 04:07:36;;;;;;;;;;;0.30;99.90;;;;;;5096111;28;20018;-77
2021/12/21 04:10:03;;;;;;;;;;;0.30;99.90;;;;;;5088922;28;19931;-78
2021/12/21 04:12:30;;;;;;;;;;;0.20;99.90;;;;;;5076885;28;19928;-77
2021/12/21 04:14:58;;;;;;;;;;;0.30;99.90;;;;;;5084405;28;19958;-78
2021/12/21 04:17:26;;;;;;;;;;;0.30;99.90;;;;;;5095938;28;20024;-78
2021/12/21 04:19:53;;;;;;;;;;;0.30;99.90;;;;;;5083658;28;19923;-78
2021/12/21 04:22:20;;;;;;;;;;;0.30;99.90;;;;;;5081627;28;20343;-78
2021/12/21 04:24:47;;;;;;;;;;;0.20;99.90;;;;;;5087888;28;19931;-78
2021/12/21 04:27:15;;;;;;;;;;;0.20;99.90;;;;;;5078613;28;19932;-78
2021/12/21 04:29:41;;;;;;;;;;;0.20;99.90;;;;;;5096669;28;20522;-77
2021/12/21 04:32:08;;;;;;;;;;;0.20;99.90;;;;;;5082013;28;19978;-79
2021/12/21 04:34:38;;;;;;;;;;;0.20;99.90;;;;;;5090589;28;20412;-79
2021/12/21 04:37:05;;;;;;;;;;;0.20;99.90;;;;;;5079395;28;20450;-78
2021/12/21 04:39:37;;;;;;;;;;;0.20;99.90;;;;;;5098395;28;19931;-77
2021/12/21 04:42:05;;;;;;;;;;;0.20;99.90;;;;;;5099790;28;19931;-79
2021/12/21 04:44:32;;;;;;;;;;;0.20;99.90;;;;;;5075355;28;20475;-77
2021/12/21 04:47:01;;;;;;;;;;;0.20;99.90;;;;;;5083855;28;19932;-78
2021/12/21 04:49:28;;;;;;;;;;;0.20;99.90;;;;;;5101093;28;19924;-78
2021/12/21 04:51:56;;;;;;;;;;;0.20;99.90;;;;;;5078526;28;19935;-78
2021/12/21 04:54:23;;;;;;;;;;;0.20;99.90;;;;;;5090628;28;20986;-78
2021/12/21 04:56:50;;;;;;;;;;;0.20;99.90;;;;;;5077525;28;19932;-79
2021/12/21 04:59:17;;;;;;;;;;;0.10;99.90;;;;;;5073886;28;19959;-78
2021/12/21 05:01:44;;;;;;;;;;;0.10;99.90;;;;;;5092192;28;19924;-78
2021/12/21 05:04:11;;;;;;;;;;;0.10;99.90;;;;;;5093809;28;19930;-78
2021/12/21 05:06:38;;;;;;;;;;;0.10;99.90;;;;;;5098997;28;19928;-78
2021/12/21 05:09:11;;;;;;;;;;;0.10;99.90;;;;;;5088835;28;20393;-78
2021/12/21 05:11:41;;;;;;;;;;;0.10;99.90;;;;;;5095666;28;19924;-79
2021/12/21 05:14:09;;;;;;;;;;;0.10;99.90;;;;;;5079696;28;19974;-79
2021/12/21 05:16:36;;;;;;;;;;;0.10;99.90;;;;;;5091524;28;19928;-78
2021/12/21 05:19:03;;;;;;;;;;;0.00;99.90;;;;;;5094160;28;20346;-78
2021/12/21 05:21:30;;;;;;;;;;;0.00;99.90;;;;;;5079705;28;19950;-78
2021/12/21 05:23:57;;;;;;;;;;;0.00;99.90;;;;;;5103277;28;20027;-79
2021/12/21 05:26:25;;;;;;;;;;;0.00;99.90;;;;;;5091276;28;19947;-78
2021/12/21 05:28:52;;;;;;;;;;;0.00;99.90;;;;;;5090737;28;19932;-78
2021/12/21 05:31:19;;;;;;;;;;;0.00;99.90;;;;;;5089707;28;19954;-78
2021/12/21 05:33:50;;;;;;;;;;;0.00;99.90;;;;;;5091845;28;19931;-78
2021/12/21 05:36:17;;;;;;;;;;;0.00;99.90;;;;;;5086542;28;19963;-79
2021/12/21 05:38:48;;;;;;;;;;;0.00;99.90;;;;;;5089541;28;19955;-79
2021/12/21 05:41:23;;;;;;;;;;;0.00;99.90;;;;;;5097975;28;20014;-78
2021/12/21 05:43:52;;;;;;;;;;;0.00;99.90;;;;;;5075780;28;19928;-79
2021/12/21 05:46:19;;;;;;;;;;;0.00;99.90;;;;;;5096907;28;20023;-80
2021/12/21 05:48:47;;;;;;;;;;;0.00;99.90;;;;;;5084093;28;19931;-78
2021/12/21 05:51:14;;;;;;;;;;;0.00;99.90;;;;;;5089419;28;20381;-77
2021/12/21 05:53:41;;;;;;;;;;;0.00;99.90;;;;;;5088187;28;19928;-78
2021/12/21 05:56:08;;;;;;;;;;;-0.10;99.90;;;;;;5092726;28;20305;-78
2021/12/21 05:58:34;;;;;;;;;;;-0.10;99.90;;;;;;5085763;28;20466;-77
2021/12/21 06:01:03;;;;;;;;;;;-0.10;99.90;;;;;;5086652;28;19924;-78
2021/12/21 06:03:31;;;;;;;;;;;-0.10;99.90;;;;;;5089944;28;19930;-78
2021/12/21 06:05:58;;;;;;;;;;;-0.10;99.90;;;;;;5085561;28;19932;-78
2021/12/21 06:08:25;;;;;;;;;;;-0.10;99.90;;;;;;5079258;28;19924;-78
2021/12/21 06:10:55;;;;;;;;;;;-0.20;99.90;;;;;;5072860;28;19959;-78
2021/12/21 06:27:10;;;;;;;;;;;-0.20;99.90;;;;;;5093099;28;19946;-78
2021/12/21 06:29:37;;;;;;;;;;;-0.20;99.90;;;;;;5073304;28;19977;-78
2021/12/21 06:32:06;;;;;;;;;;;-0.20;99.90;;;;;;5079735;28;19945;-78
2021/12/21 06:34:33;;;;;;;;;;;-0.20;99.90;;;;;;5096121;28;19928;-78
2021/12/21 06:37:00;;;;;;;;;;;-0.20;99.90;;;;;;5095084;28;19924;-79
2021/12/21 06:39:28;;;;;;;;;;;-0.20;99.90;;;;;;5076365;28;19927;-78
2021/12/21 06:41:56;;;;;;;;;;;-0.20;99.90;;;;;;5095484;28;20520;-79
2021/12/21 06:44:26;;;;;;;;;;;-0.30;99.90;;;;;;5077558;28;19932;-79
2021/12/21 06:51:05;;;;;;;;;;;-0.30;99.90;;;;;;5072609;28;19967;-79
2021/12/21 06:52:35;;;;;;;;;;;-0.30;99.90;;;;;;5087879;28;19939;-79
2021/12/21 06:55:08;;;;;;;;;;;-0.30;99.90;;;;;;5079342;28;19924;-78
2021/12/21 06:57:37;;;;;;;;;;;-0.30;99.90;;;;;;5082565;28;19928;-77
2021/12/21 07:00:07;;;;;;;;;;;-0.30;99.90;;;;;;5095858;28;20039;-78
2021/12/21 07:02:38;;;;;;;;;;;-0.30;99.90;;;;;;5078576;28;19931;-78
2021/12/21 07:05:07;;;;;;;;;;;-0.30;99.90;;;;;;5073743;28;19928;-78
2021/12/21 07:07:35;;;;;;;;;;;-0.30;99.90;;;;;;5092689;28;19924;-79
2021/12/21 07:10:12;;;;;;;;;;;-0.30;99.90;;;;;;5103843;28;19924;-78
2021/12/21 07:18:14;;;;;;;;;;;-0.30;99.90;;;;;;5094294;28;19996;-77
2021/12/21 07:20:46;;;;;;;;;;;-0.30;99.90;;;;;;5092767;28;19928;-78
2021/12/21 07:23:16;;;;;;;;;;;-0.30;99.90;;;;;;5090943;28;19932;-79
2021/12/21 07:25:43;;;;;;;;;;;-0.30;99.90;;;;;;5075431;28;19924;-78
2021/12/21 07:28:10;;;;;;;;;;;-0.40;99.90;;;;;;5094368;28;19923;-80
2021/12/21 07:30:37;;;;;;;;;;;-0.40;99.90;;;;;;5097763;28;19968;-80
2021/12/21 07:33:04;;;;;;;;;;;-0.40;99.90;;;;;;5096396;28;19927;-78
2021/12/21 07:35:31;;;;;;;;;;;-0.40;99.90;;;;;;5087218;28;20401;-78
2021/12/21 07:38:01;;;;;;;;;;;-0.40;99.90;;;;;;5099813;28;19928;-78
2021/12/21 07:40:28;;;;;;;;;;;-0.40;99.90;;;;;;5093911;28;19964;-79
2021/12/21 07:42:55;;;;;;;;;;;-0.40;99.90;;;;;;5071529;28;20436;-79
2021/12/21 07:45:22;;;;;;;;;;;-0.40;99.90;;;;;;5089109;28;20477;-79
2021/12/21 07:47:49;;;;;;;;;;;-0.40;99.90;;;;;;5099141;28;19932;-79
2021/12/21 07:50:17;;;;;;;;;;;-0.40;99.90;;;;;;5072980;28;19924;-80
2021/12/21 07:52:44;;;;;;;;;;;-0.40;99.90;;;;;;5101383;28;19943;-78
2021/12/21 07:55:13;;;;;;;;;;;-0.50;99.90;;;;;;5081226;28;19927;-79
2021/12/21 07:57:40;;;;;;;;;;;-0.50;99.90;;;;;;5077905;28;20290;-80
2021/12/21 08:00:09;;;;;;;;;;;-0.50;99.90;;;;;;5079625;28;19932;-78
2021/12/21 08:02:40;;;;;;;;;;;-0.50;99.90;;;;;;5095211;28;20015;-79
2021/12/21 08:05:08;;;;;;;;;;;-0.50;99.90;;;;;;5087167;28;19928;-78
2021/12/21 08:07:43;;;;;;;;;;;-0.50;99.90;;;;;;5092358;28;19927;-79
2021/12/21 08:10:20;;;;;;;;;;;-0.50;99.90;;;;;;5081588;28;19969;-80
2021/12/21 08:12:49;;;;;;;;;;;-0.50;99.90;;;;;;5091527;28;20140;-79
2021/12/21 08:15:16;;;;;;;;;;;-0.50;99.90;;;;;;5099051;28;20009;-80
2021/12/21 08:17:43;;;;;;;;;;;-0.50;99.90;;;;;;5094190;28;19945;-78
2021/12/21 08:20:10;;;;;;;;;;;-0.50;99.90;;;;;;5093919;28;19931;-79
2021/12/21 08:22:37;;;;;;;;;;;-0.50;99.90;;;;;;5103574;28;19930;-80
2021/12/21 08:25:06;;;;;;;;;;;-0.50;99.90;;;;;;5090155;28;19932;-80
2021/12/21 08:27:33;;;;;;;;;;;-0.50;99.90;;;;;;5099110;28;19932;-79
2021/12/21 08:30:01;;;;;;;;;;;-0.50;99.90;;;;;;5090252;28;20413;-78
2021/12/21 08:32:29;;;;;;;;;;;-0.50;99.90;;;;;;5096487;28;19930;-78
2021/12/21 08:34:56;;;;;;;;;;;-0.60;99.90;;;;;;5097301;28;20057;-79
2021/12/21 08:37:23;;;;;;;;;;;-0.60;99.90;;;;;;5093732;28;20293;-80
2021/12/21 08:39:50;;;;;;;;;;;-0.60;99.90;;;;;;5101756;28;19932;-79
2021/12/21 08:42:17;;;;;;;;;;;-0.60;99.90;;;;;;5104004;28;19931;-79
2021/12/21 08:44:46;;;;;;;;;;;-0.50;99.90;;;;;;5079607;28;20022;-78
2021/12/21 08:47:16;;;;;;;;;;;-0.50;99.90;;;;;;5095941;28;19989;-79
2021/12/21 08:49:43;;;;;;;;;;;-0.50;99.90;;;;;;5098137;28;19951;-79
2021/12/21 08:52:11;;;;;;;;;;;-0.50;99.90;;;;;;5087301;28;20297;-80
2021/12/21 08:54:38;;;;;;;;;;;-0.50;99.90;;;;;;5091055;28;19924;-79
2021/12/21 08:57:05;;;;;;;;;;;-0.60;99.90;;;;;;5081600;28;19932;-79
2021/12/21 08:59:32;;;;;;;;;;;-0.50;99.90;;;;;;5072863;28;19931;-79
2021/12/21 09:01:59;;;;;;;;;;;-0.50;99.90;;;;;;5093283;28;20014;-79
2021/12/21 09:04:27;;;;;;;;;;;-0.60;99.90;;;;;;5093493;28;20428;-79
2021/12/21 09:06:55;;;;;;;;;;;-0.50;99.90;;;;;;5077058;28;19970;-79
2021/12/21 09:09:21;;;;;;;;;;;-0.50;99.90;;;;;;5084579;28;20455;-80
2021/12/21 09:11:50;;;;;;;;;;;-0.50;99.90;;;;;;5073917;28;19973;-80
2021/12/21 09:14:18;;;;;;;;;;;-0.50;99.90;;;;;;5077935;28;19931;-78
2021/12/21 09:16:45;;;;;;;;;;;-0.50;99.90;;;;;;5096446;28;20470;-80
2021/12/21 09:19:12;;;;;;;;;;;-0.50;99.90;;;;;;5087059;28;19924;-79
2021/12/21 09:21:41;;;;;;;;;;;-0.60;99.90;;;;;;5076709;28;19930;-79
2021/12/21 09:24:08;;;;;;;;;;;-0.50;99.90;;;;;;5088969;28;20339;-80
2021/12/21 09:26:35;;;;;;;;;;;-0.50;99.90;;;;;;5097390;28;19924;-79
2021/12/21 09:29:03;;;;;;;;;;;-0.50;99.90;;;;;;5084030;28;20042;-80
2021/12/21 09:31:30;;;;;;;;;;;-0.60;99.90;;;;;;5072476;28;19931;-78
2021/12/21 09:33:57;;;;;;;;;;;-0.60;99.90;;;;;;5095729;28;19946;-79
2021/12/21 09:36:26;;;;;;;;;;;-0.60;99.90;;;;;;5081565;28;19932;-79
2021/12/21 09:38:54;;;;;;;;;;;-0.60;99.90;;;;;;5092459;28;19958;-79
2021/12/21 09:41:22;;;;;;;;;;;-0.60;99.90;;;;;;5094875;28;20191;-79
2021/12/21 09:43:49;;;;;;;;;;;-0.60;99.90;;;;;;5094736;28;20487;-79
2021/12/21 09:46:16;;;;;;;;;;;-0.60;99.90;;;;;;5091332;28;19958;-79
2021/12/21 09:48:44;;;;;;;;;;;-0.50;99.90;;;;;;5077462;28;20035;-79
2021/12/21 09:51:11;;;;;;;;;;;-0.50;99.90;;;;;;5081241;28;19924;-80
2021/12/21 09:53:38;;;;;;;;;;;-0.50;99.90;;;;;;5079941;28;20065;-79
2021/12/21 09:56:07;;;;;;;;;;;-0.50;99.90;;;;;;5093496;28;20735;-80
2021/12/21 09:58:34;;;;;;;;;;;-0.50;99.90;;;;;;5086954;28;20407;-80
2021/12/21 10:01:03;;;;;;;;;;;-0.50;99.90;;;;;;5128553;22;19928;-84
2021/12/21 10:03:33;;;;;;;;;;;-0.50;99.90;;;;;;5130446;28;19937;-83
2021/12/21 10:06:03;;;;;;;;;;;-0.50;99.90;;;;;;5131506;28;19919;-83
2021/12/21 10:08:32;;;;;;;;;;;-0.50;99.90;;;;;;5125537;28;19919;-83
2021/12/21 10:11:00;;;;;;;;;;;-0.50;99.90;;;;;;5137976;28;19928;-84
2021/12/21 10:13:32;;;;;;;;;;;-0.50;99.90;;;;;;5125870;28;19915;-83
2021/12/21 10:16:04;;;;;;;;;;;-0.50;99.90;;;;;;5126483;27;19951;-83
2021/12/21 10:18:34;;;;;;;;;;;-0.40;99.90;;;;;;5132252;28;19912;-83
2021/12/21 10:21:04;;;;;;;;;;;-0.50;99.90;;;;;;5130789;28;19928;-83
2021/12/21 10:23:35;;;;;;;;;;;-0.50;99.90;;;;;;5129691;28;20058;-83
2021/12/21 10:26:05;;;;;;;;;;;-0.50;99.90;;;;;;5132990;28;19928;-83
2021/12/21 10:28:36;;;;;;;;;;;-0.50;99.90;;;;;;5130233;28;19920;-84
2021/12/21 10:31:04;;;;;;;;;;;-0.40;99.90;;;;;;5126627;28;19932;-85
2021/12/21 10:33:32;;;;;;;;;;;-0.50;99.90;;;;;;5118556;28;19932;-83
2021/12/21 10:36:03;;;;;;;;;;;-0.40;99.90;;;;;;5130972;28;19924;-83
2021/12/21 10:38:37;;;;;;;;;;;-0.40;99.90;;;;;;5131661;28;19930;-82
2021/12/21 10:41:12;;;;;;;;;;;-0.40;99.90;;;;;;5127152;28;19915;-84
2021/12/21 10:43:44;;;;;;;;;;;-0.50;99.90;;;;;;5138723;27;19908;-82
2021/12/21 10:46:15;;;;;;;;;;;-0.40;99.90;;;;;;5135520;28;19919;-83
2021/12/21 10:51:26;;;;;;;;;;;-0.40;99.90;;;;;;5030114;25;19935;-83
2021/12/21 10:53:54;;;;;;;;;;;-0.40;99.90;;;;;;5100622;28;19908;-83
2021/12/21 10:56:23;;;;;;;;;;;-0.40;99.90;;;;;;5099783;28;19915;-84
2021/12/21 10:58:54;;;;;;;;;;;-0.40;99.90;;;;;;5097240;28;19932;-82
2021/12/21 11:01:27;;;;;;;;;;;-0.40;99.90;;;;;;5110921;28;19980;-82
2021/12/21 11:03:57;;;;;;;;;;;-0.40;99.90;;;;;;5111949;28;19984;-82
2021/12/21 11:06:29;;;;;;;;;;;-0.40;99.90;;;;;;5097483;28;19932;-82
2021/12/21 11:08:58;;;;;;;;;;;-0.40;99.90;;;;;;5101048;28;19970;-82
2021/12/21 11:11:29;;;;;;;;;;;-0.40;99.90;;;;;;5107444;28;19924;-83
2021/12/21 11:14:03;;;;;;;;;;;-0.40;99.90;;;;;;5116571;28;19912;-83
2021/12/21 11:16:37;;;;;;;;;;;-0.40;99.90;;;;;;5117491;28;19934;-83
2021/12/21 11:19:06;;;;;;;;;;;-0.30;99.90;;;;;;5093566;28;20003;-83
2021/12/21 11:21:35;;;;;;;;;;;-0.40;99.90;;;;;;5116299;28;19924;-83
2021/12/21 11:24:06;;;;;;;;;;;-0.30;99.90;;;;;;5115849;28;19942;-83
2021/12/21 11:26:41;;;;;;;;;;;-0.40;99.90;;;;;;5118038;28;19908;-83
2021/12/21 11:29:15;;;;;;;;;;;-0.30;99.90;;;;;;5114131;28;19912;-83
2021/12/21 11:31:44;;;;;;;;;;;-0.30;99.90;;;;;;5113043;28;19924;-82
2021/12/21 11:45:55;;;;;;;;;;;-0.30;99.90;;;;;;4687516;26;19968;-83
2021/12/21 11:51:05;;;;;;;;;;;-0.20;99.90;;;;;;5990825;22;19916;-82
2021/12/21 11:56:19;;;;;;;;;;;-0.20;99.90;;;;;;4844930;22;20015;-81
2021/12/21 12:04:46;;;;;;;;;;;-0.20;99.90;;;;;;5467976;22;20103;-83
2021/12/21 12:26:32;;;;;;;;;;;-0.10;99.90;;;;;;5545753;22;19995;-82
2021/12/21 16:01:03;;;;;;;;;;;0.30;99.90;;;;;;5469277;22;19935;-81
2021/12/21 16:03:30;;;;;;;;;;;0.20;99.90;;;;;;5084704;22;19935;-81
2021/12/21 16:06:00;;;;;;;;;;;0.30;99.90;;;;;;5055391;28;20306;-81
2021/12/21 16:08:28;;;;;;;;;;;0.30;99.90;;;;;;5079494;28;19936;-81
2021/12/21 16:10:58;;;;;;;;;;;0.30;99.90;;;;;;5055123;28;19924;-80
2021/12/21 16:13:25;;;;;;;;;;;0.30;99.90;;;;;;5057718;28;19925;-80
2021/12/21 16:15:52;;;;;;;;;;;0.30;99.90;;;;;;5063643;28;20390;-80
2021/12/21 16:18:21;;;;;;;;;;;0.30;99.90;;;;;;5066722;28;19931;-81
2021/12/21 16:20:51;;;;;;;;;;;0.30;99.90;;;;;;5063241;28;19933;-80
2021/12/21 16:23:18;;;;;;;;;;;0.30;99.90;;;;;;5059176;28;20013;-80
2021/12/21 16:25:46;;;;;;;;;;;0.30;99.90;;;;;;5074950;28;19928;-82
2021/12/21 16:40:12;;;;;;;;;;;0.50;99.90;;;;;;5859309;22;20047;-87
2021/12/21 16:56:46;;;;;;;;;;;-0.10;99.90;;;;;;5343999;22;19936;-83
2021/12/21 16:59:15;;;;;;;;;;;-0.10;99.90;;;;;;5076956;28;19932;-79
2021/12/21 17:01:42;;;;;;;;;;;-0.10;99.90;;;;;;5071769;28;19932;-79
2021/12/21 17:04:10;;;;;;;;;;;0.00;99.90;;;;;;5082719;28;20010;-79
2021/12/21 17:06:39;;;;;;;;;;;0.10;99.90;;;;;;5081730;28;19928;-78
2021/12/21 17:09:09;;;;;;;;;;;0.00;99.90;;;;;;5064202;28;19924;-78
2021/12/21 17:14:34;;;;;;;;;;;0.10;99.90;;;;;;5101411;22;19928;-79
2021/12/21 17:17:01;;;;;;;;;;;0.10;99.90;;;;;;5091441;28;19932;-79
2021/12/21 17:19:28;;;;;;;;;;;0.20;99.90;;;;;;5063471;28;19932;-79
2021/12/21 17:21:55;;;;;;;;;;;0.20;99.90;;;;;;5076230;28;19924;-79
2021/12/21 17:24:22;;;;;;;;;;;0.20;99.90;;;;;;5079870;28;19924;-78
2021/12/21 17:26:49;;;;;;;;;;;0.10;99.90;;;;;;5064027;28;19932;-79
2021/12/21 17:29:16;;;;;;;;;;;0.20;99.90;;;;;;5062502;28;19977;-78
2021/12/21 17:31:45;;;;;;;;;;;0.20;99.90;;;;;;5054425;28;19932;-80
2021/12/21 17:34:12;;;;;;;;;;;0.20;99.90;;;;;;5065479;28;19970;-79
2021/12/21 17:36:40;;;;;;;;;;;0.10;99.90;;;;;;5084596;28;20018;-80
2021/12/21 17:39:08;;;;;;;;;;;0.10;99.90;;;;;;5076516;28;20390;-85
2021/12/21 17:41:35;;;;;;;;;;;0.10;99.90;;;;;;5062652;28;20039;-78
2021/12/21 17:44:02;;;;;;;;;;;0.10;99.90;;;;;;5066275;28;19929;-79
2021/12/21 17:46:30;;;;;;;;;;;0.10;99.90;;;;;;5077614;28;19932;-84
2021/12/21 17:49:01;;;;;;;;;;;0.20;99.90;;;;;;5070640;28;19958;-78
2021/12/21 17:51:28;;;;;;;;;;;0.20;99.90;;;;;;5064280;28;19932;-78
2021/12/21 17:53:55;;;;;;;;;;;0.20;99.90;;;;;;5085904;28;19932;-80
2021/12/21 17:56:22;;;;;;;;;;;0.20;99.90;;;;;;5064699;28;20390;-78
2021/12/21 17:58:49;;;;;;;;;;;0.20;99.90;;;;;;5076854;28;20464;-79
2021/12/21 18:01:16;;;;;;;;;;;0.20;99.90;;;;;;5081990;28;19998;-79
2021/12/21 18:03:43;;;;;;;;;;;0.20;99.90;;;;;;5065508;28;20031;-78
2021/12/21 18:06:12;;;;;;;;;;;0.20;99.90;;;;;;5080755;28;19931;-78
2021/12/21 18:08:39;;;;;;;;;;;0.20;99.90;;;;;;5058638;28;20037;-77
2021/12/21 18:11:06;;;;;;;;;;;0.20;99.90;;;;;;5077361;28;19928;-78
2021/12/21 18:13:33;;;;;;;;;;;0.10;99.90;;;;;;5090179;28;19928;-78
2021/12/21 18:16:00;;;;;;;;;;;0.20;99.90;;;;;;5077020;28;19951;-79
2021/12/21 18:18:27;;;;;;;;;;;0.20;99.90;;;;;;5082975;28;20015;-79
2021/12/21 18:20:56;;;;;;;;;;;0.20;99.90;;;;;;5080816;28;20018;-78
2021/12/21 18:23:25;;;;;;;;;;;0.20;99.90;;;;;;5082839;28;19981;-78
2021/12/21 18:25:52;;;;;;;;;;;0.20;99.90;;;;;;5078253;28;19924;-79
2021/12/21 18:28:22;;;;;;;;;;;0.20;99.90;;;;;;5073935;28;20023;-79
2021/12/21 18:30:49;;;;;;;;;;;0.20;99.90;;;;;;5070698;28;19943;-79
2021/12/21 18:33:16;;;;;;;;;;;0.20;99.90;;;;;;5080773;28;20036;-79
2021/12/21 18:35:43;;;;;;;;;;;0.10;99.90;;;;;;5082047;28;20029;-81
2021/12/21 18:38:11;;;;;;;;;;;0.20;99.90;;;;;;5076996;28;19924;-80
2021/12/21 18:40:44;;;;;;;;;;;0.20;99.90;;;;;;5062429;28;19935;-79
2021/12/21 18:43:11;;;;;;;;;;;0.20;99.90;;;;;;5076027;28;20416;-78
2021/12/21 18:45:38;;;;;;;;;;;0.20;99.90;;;;;;5086211;28;19932;-79
2021/12/21 18:48:06;;;;;;;;;;;0.10;99.90;;;;;;5076737;28;19934;-80
2021/12/21 18:50:34;;;;;;;;;;;0.10;99.90;;;;;;5065399;28;19938;-80
2021/12/21 18:53:04;;;;;;;;;;;0.20;99.90;;;;;;5067177;28;20389;-80
2021/12/21 18:55:32;;;;;;;;;;;0.10;99.90;;;;;;5081046;28;19932;-86
2021/12/21 18:58:02;;;;;;;;;;;0.10;99.90;;;;;;5064132;28;20406;-79
2021/12/21 19:00:33;;;;;;;;;;;0.10;99.90;;;;;;5059718;28;19929;-80
2021/12/21 19:03:05;;;;;;;;;;;0.10;99.90;;;;;;5075619;28;19924;-80
2021/12/21 19:05:33;;;;;;;;;;;0.20;99.90;;;;;;5087546;28;19925;-81
2021/12/21 19:11:00;;;;;;;;;;;0.10;99.90;;;;;;5073147;28;20003;-82
2021/12/21 19:13:35;;;;;;;;;;;0.00;99.90;;;;;;5089873;28;19969;-81
2021/12/21 19:16:04;;;;;;;;;;;-0.10;99.90;;;;;;5085412;28;19923;-79
2021/12/21 19:18:33;;;;;;;;;;;0.10;99.90;;;;;;5085807;28;20297;-80
2021/12/21 19:21:00;;;;;;;;;;;0.20;99.90;;;;;;5065322;28;20516;-82
2021/12/21 19:23:27;;;;;;;;;;;0.20;99.90;;;;;;5086175;28;19924;-80
2021/12/21 19:25:56;;;;;;;;;;;0.10;99.90;;;;;;5067015;28;20401;-80
2021/12/21 19:28:25;;;;;;;;;;;0.10;99.90;;;;;;5066615;28;19928;-80
2021/12/21 19:30:55;;;;;;;;;;;0.10;99.90;;;;;;5072022;28;20053;-85
2021/12/21 19:33:23;;;;;;;;;;;0.10;99.90;;;;;;5065804;28;19939;-80
2021/12/21 19:35:51;;;;;;;;;;;0.10;99.90;;;;;;5068210;28;19932;-81
2021/12/21 19:38:21;;;;;;;;;;;0.10;99.90;;;;;;5083191;28;19928;-80
2021/12/21 19:40:49;;;;;;;;;;;0.10;99.90;;;;;;5067636;28;19974;-80
2021/12/21 19:43:16;;;;;;;;;;;0.10;99.90;;;;;;5084493;28;19924;-83
2021/12/21 19:45:49;;;;;;;;;;;0.10;99.90;;;;;;5069511;28;19939;-79
2021/12/21 19:48:18;;;;;;;;;;;0.10;99.90;;;;;;5064977;28;20588;-80
2021/12/21 19:50:47;;;;;;;;;;;0.10;99.90;;;;;;5061625;28;19967;-80
2021/12/21 19:53:14;;;;;;;;;;;0.10;99.90;;;;;;5070030;28;19939;-80
2021/12/21 19:55:41;;;;;;;;;;;0.10;99.90;;;;;;5068180;28;20491;-82
2021/12/21 19:58:08;;;;;;;;;;;0.10;99.90;;;;;;5073246;28;19932;-81
2021/12/21 20:00:36;;;;;;;;;;;0.10;99.90;;;;;;5078026;28;19939;-79
2021/12/21 20:03:03;;;;;;;;;;;0.10;99.90;;;;;;5087349;28;20519;-80
2021/12/21 20:05:32;;;;;;;;;;;0.10;99.90;;;;;;5096197;28;19927;-83
2021/12/21 20:07:59;;;;;;;;;;;0.10;99.90;;;;;;5064416;28;20298;-79